sensor_id;sensor_type;location;lat;lon;timestamp;P1;durP1;ratioP1;P2;durP2;ratioP2
48516;SDS011;34310;51.904;4.256;2024-02-28T00:00:35;4.95;;;3.40;;
48516;SDS011;34310;51.904;4.256;2024-02-28T00:03:02;4.50;;;3.47;;
48516;SDS011;34310;51.904;4.256;2024-02-28T00:05:29;3.72;;;3.20;;
48516;SDS011;34310;51.904;4.256;2024-02-28T00:07:55;4.10;;;2.75;;
48516;SDS011;34310;51.904;4.256;2024-02-28T00:10:22;5.65;;;2.80;;
48516;SDS011;34310;51.904;4.256;2024-02-28T00:12:48;2.88;;;2.53;;
48516;SDS011;34310;51.904;4.256;2024-02-28T00:15:15;3.80;;;2.50;;
48516;SDS011;34310;51.904;4.256;2024-02-28T00:17:43;2.63;;;2.40;;
48516;SDS011;34310;51.904;4.256;2024-02-28T00:20:10;4.93;;;2.25;;
48516;SDS011;34310;51.904;4.256;2024-02-28T00:22:37;4.35;;;2.40;;
48516;SDS011;34310;51.904;4.256;2024-02-28T00:25:04;3.25;;;2.40;;
48516;SDS011;34310;51.904;4.256;2024-02-28T00:27:31;3.08;;;2.60;;
48516;SDS011;34310;51.904;4.256;2024-02-28T00:29:57;3.85;;;2.40;;
48516;SDS011;34310;51.904;4.256;2024-02-28T00:32:24;2.63;;;2.30;;
48516;SDS011;34310;51.904;4.256;2024-02-28T00:34:50;3.67;;;2.50;;
48516;SDS011;34310;51.904;4.256;2024-02-28T00:37:17;2.97;;;2.25;;
48516;SDS011;34310;51.904;4.256;2024-02-28T00:39:44;3.55;;;2.75;;
48516;SDS011;34310;51.904;4.256;2024-02-28T00:42:11;2.92;;;2.15;;
48516;SDS011;34310;51.904;4.256;2024-02-28T00:44:38;2.90;;;2.40;;
48516;SDS011;34310;51.904;4.256;2024-02-28T00:47:04;3.25;;;2.38;;
48516;SDS011;34310;51.904;4.256;2024-02-28T00:49:31;3.00;;;2.33;;
48516;SDS011;34310;51.904;4.256;2024-02-28T00:51:58;3.35;;;2.58;;
48516;SDS011;34310;51.904;4.256;2024-02-28T00:54:24;2.72;;;2.17;;
48516;SDS011;34310;51.904;4.256;2024-02-28T00:56:51;2.80;;;2.38;;
48516;SDS011;34310;51.904;4.256;2024-02-28T00:59:18;2.65;;;2.03;;
48516;SDS011;34310;51.904;4.256;2024-02-28T01:01:44;3.45;;;2.20;;
48516;SDS011;34310;51.904;4.256;2024-02-28T01:04:11;2.70;;;2.20;;
48516;SDS011;34310;51.904;4.256;2024-02-28T01:06:38;4.00;;;2.38;;
48516;SDS011;34310;51.904;4.256;2024-02-28T01:09:05;3.25;;;2.45;;
48516;SDS011;34310;51.904;4.256;2024-02-28T01:11:31;2.63;;;2.17;;
48516;SDS011;34310;51.904;4.256;2024-02-28T01:13:58;3.05;;;2.60;;
48516;SDS011;34310;51.904;4.256;2024-02-28T01:16:24;2.92;;;2.20;;
48516;SDS011;34310;51.904;4.256;2024-02-28T01:18:51;3.22;;;2.20;;
48516;SDS011;34310;51.904;4.256;2024-02-28T01:21:18;2.85;;;2.20;;
48516;SDS011;34310;51.904;4.256;2024-02-28T01:23:45;2.50;;;2.22;;
48516;SDS011;34310;51.904;4.256;2024-02-28T01:26:11;2.72;;;2.22;;
48516;SDS011;34310;51.904;4.256;2024-02-28T01:28:38;3.30;;;2.25;;
48516;SDS011;34310;51.904;4.256;2024-02-28T01:31:04;2.40;;;2.10;;
48516;SDS011;34310;51.904;4.256;2024-02-28T01:33:31;2.80;;;2.10;;
48516;SDS011;34310;51.904;4.256;2024-02-28T01:35:58;3.17;;;2.15;;
48516;SDS011;34310;51.904;4.256;2024-02-28T01:38:25;2.17;;;1.90;;
48516;SDS011;34310;51.904;4.256;2024-02-28T01:40:51;3.38;;;2.25;;
48516;SDS011;34310;51.904;4.256;2024-02-28T01:43:18;2.88;;;2.25;;
48516;SDS011;34310;51.904;4.256;2024-02-28T01:45:44;2.92;;;2.20;;
48516;SDS011;34310;51.904;4.256;2024-02-28T01:48:11;3.05;;;2.58;;
48516;SDS011;34310;51.904;4.256;2024-02-28T01:50:38;2.65;;;2.20;;
48516;SDS011;34310;51.904;4.256;2024-02-28T01:53:06;3.33;;;2.40;;
48516;SDS011;34310;51.904;4.256;2024-02-28T01:55:37;2.58;;;2.25;;
48516;SDS011;34310;51.904;4.256;2024-02-28T01:58:04;2.65;;;2.22;;
48516;SDS011;34310;51.904;4.256;2024-02-28T02:00:33;2.40;;;2.20;;
48516;SDS011;34310;51.904;4.256;2024-02-28T02:03:03;3.55;;;2.55;;
48516;SDS011;34310;51.904;4.256;2024-02-28T02:05:30;3.00;;;2.05;;
48516;SDS011;34310;51.904;4.256;2024-02-28T02:07:57;3.00;;;2.20;;
48516;SDS011;34310;51.904;4.256;2024-02-28T02:10:28;2.60;;;2.20;;
48516;SDS011;34310;51.904;4.256;2024-02-28T02:12:54;2.55;;;2.30;;
48516;SDS011;34310;51.904;4.256;2024-02-28T02:15:21;2.67;;;2.33;;
48516;SDS011;34310;51.904;4.256;2024-02-28T02:17:48;2.92;;;2.40;;
48516;SDS011;34310;51.904;4.256;2024-02-28T02:20:19;3.45;;;2.13;;
48516;SDS011;34310;51.904;4.256;2024-02-28T02:22:47;3.22;;;2.28;;
48516;SDS011;34310;51.904;4.256;2024-02-28T02:25:14;3.72;;;2.47;;
48516;SDS011;34310;51.904;4.256;2024-02-28T02:27:40;2.90;;;2.28;;
48516;SDS011;34310;51.904;4.256;2024-02-28T02:30:07;2.42;;;2.10;;
48516;SDS011;34310;51.904;4.256;2024-02-28T02:32:34;2.88;;;2.20;;
48516;SDS011;34310;51.904;4.256;2024-02-28T02:35:01;2.45;;;2.22;;
48516;SDS011;34310;51.904;4.256;2024-02-28T02:37:31;2.88;;;2.30;;
48516;SDS011;34310;51.904;4.256;2024-02-28T02:39:58;3.30;;;2.50;;
48516;SDS011;34310;51.904;4.256;2024-02-28T02:42:27;2.53;;;2.03;;
48516;SDS011;34310;51.904;4.256;2024-02-28T02:44:54;2.67;;;2.28;;
48516;SDS011;34310;51.904;4.256;2024-02-28T02:47:20;3.33;;;2.25;;
48516;SDS011;34310;51.904;4.256;2024-02-28T02:49:47;2.33;;;2.05;;
48516;SDS011;34310;51.904;4.256;2024-02-28T02:52:14;2.28;;;2.10;;
48516;SDS011;34310;51.904;4.256;2024-02-28T02:54:40;2.58;;;2.13;;
48516;SDS011;34310;51.904;4.256;2024-02-28T02:57:07;2.10;;;1.90;;
48516;SDS011;34310;51.904;4.256;2024-02-28T02:59:34;3.38;;;2.53;;
48516;SDS011;34310;51.904;4.256;2024-02-28T03:02:02;2.83;;;2.17;;
48516;SDS011;34310;51.904;4.256;2024-02-28T03:04:28;2.30;;;2.10;;
48516;SDS011;34310;51.904;4.256;2024-02-28T03:06:55;3.47;;;2.75;;
48516;SDS011;34310;51.904;4.256;2024-02-28T03:09:22;2.45;;;2.25;;
48516;SDS011;34310;51.904;4.256;2024-02-28T03:11:48;3.22;;;2.42;;
48516;SDS011;34310;51.904;4.256;2024-02-28T03:14:15;2.50;;;2.30;;
48516;SDS011;34310;51.904;4.256;2024-02-28T03:16:42;3.25;;;2.55;;
48516;SDS011;34310;51.904;4.256;2024-02-28T03:19:09;3.00;;;2.78;;
48516;SDS011;34310;51.904;4.256;2024-02-28T03:21:36;3.00;;;2.70;;
48516;SDS011;34310;51.904;4.256;2024-02-28T03:24:03;2.90;;;2.70;;
48516;SDS011;34310;51.904;4.256;2024-02-28T03:26:30;3.42;;;2.92;;
48516;SDS011;34310;51.904;4.256;2024-02-28T03:28:56;3.30;;;2.85;;
48516;SDS011;34310;51.904;4.256;2024-02-28T03:31:23;3.20;;;2.83;;
48516;SDS011;34310;51.904;4.256;2024-02-28T03:33:49;3.55;;;3.00;;
48516;SDS011;34310;51.904;4.256;2024-02-28T03:36:16;3.60;;;3.17;;
48516;SDS011;34310;51.904;4.256;2024-02-28T03:38:43;3.75;;;3.45;;
48516;SDS011;34310;51.904;4.256;2024-02-28T03:41:09;3.85;;;3.40;;
48516;SDS011;34310;51.904;4.256;2024-02-28T03:43:36;3.58;;;3.22;;
48516;SDS011;34310;51.904;4.256;2024-02-28T03:46:03;4.35;;;3.90;;
48516;SDS011;34310;51.904;4.256;2024-02-28T03:48:29;4.60;;;3.63;;
48516;SDS011;34310;51.904;4.256;2024-02-28T03:50:56;3.85;;;3.50;;
48516;SDS011;34310;51.904;4.256;2024-02-28T03:53:23;4.55;;;3.67;;
48516;SDS011;34310;51.904;4.256;2024-02-28T03:55:50;3.80;;;3.40;;
48516;SDS011;34310;51.904;4.256;2024-02-28T03:58:16;3.78;;;3.20;;
48516;SDS011;34310;51.904;4.256;2024-02-28T04:00:44;3.58;;;3.28;;
48516;SDS011;34310;51.904;4.256;2024-02-28T04:03:11;3.95;;;3.47;;
48516;SDS011;34310;51.904;4.256;2024-02-28T04:05:37;3.95;;;3.65;;
48516;SDS011;34310;51.904;4.256;2024-02-28T04:08:04;5.13;;;3.95;;
48516;SDS011;34310;51.904;4.256;2024-02-28T04:10:33;4.07;;;3.67;;
48516;SDS011;34310;51.904;4.256;2024-02-28T04:13:01;4.82;;;4.00;;
48516;SDS011;34310;51.904;4.256;2024-02-28T04:15:28;4.43;;;4.03;;
48516;SDS011;34310;51.904;4.256;2024-02-28T04:17:56;4.53;;;3.90;;
48516;SDS011;34310;51.904;4.256;2024-02-28T04:20:22;4.05;;;3.58;;
48516;SDS011;34310;51.904;4.256;2024-02-28T04:22:49;4.13;;;3.72;;
48516;SDS011;34310;51.904;4.256;2024-02-28T04:25:15;4.93;;;4.05;;
48516;SDS011;34310;51.904;4.256;2024-02-28T04:27:42;4.45;;;3.65;;
48516;SDS011;34310;51.904;4.256;2024-02-28T04:30:09;4.13;;;3.70;;
48516;SDS011;34310;51.904;4.256;2024-02-28T04:32:35;4.28;;;3.67;;
48516;SDS011;34310;51.904;4.256;2024-02-28T04:35:02;4.13;;;3.40;;
48516;SDS011;34310;51.904;4.256;2024-02-28T04:37:29;3.70;;;3.25;;
48516;SDS011;34310;51.904;4.256;2024-02-28T04:39:55;3.80;;;3.33;;
48516;SDS011;34310;51.904;4.256;2024-02-28T04:42:22;4.45;;;3.50;;
48516;SDS011;34310;51.904;4.256;2024-02-28T04:44:49;3.63;;;3.33;;
48516;SDS011;34310;51.904;4.256;2024-02-28T04:47:15;3.67;;;3.28;;
48516;SDS011;34310;51.904;4.256;2024-02-28T04:49:45;3.50;;;3.17;;
48516;SDS011;34310;51.904;4.256;2024-02-28T04:52:11;3.55;;;3.25;;
48516;SDS011;34310;51.904;4.256;2024-02-28T04:54:39;3.85;;;3.47;;
48516;SDS011;34310;51.904;4.256;2024-02-28T04:57:06;4.13;;;3.72;;
48516;SDS011;34310;51.904;4.256;2024-02-28T04:59:33;4.05;;;3.47;;
48516;SDS011;34310;51.904;4.256;2024-02-28T05:01:59;4.28;;;3.88;;
48516;SDS011;34310;51.904;4.256;2024-02-28T05:04:26;4.18;;;3.80;;
48516;SDS011;34310;51.904;4.256;2024-02-28T05:06:53;5.15;;;4.00;;
48516;SDS011;34310;51.904;4.256;2024-02-28T05:09:19;4.78;;;3.72;;
48516;SDS011;34310;51.904;4.256;2024-02-28T05:11:46;4.22;;;3.80;;
48516;SDS011;34310;51.904;4.256;2024-02-28T05:14:12;4.40;;;3.80;;
48516;SDS011;34310;51.904;4.256;2024-02-28T05:16:39;4.25;;;3.85;;
48516;SDS011;34310;51.904;4.256;2024-02-28T05:19:06;4.45;;;3.80;;
48516;SDS011;34310;51.904;4.256;2024-02-28T05:21:39;4.72;;;4.32;;
48516;SDS011;34310;51.904;4.256;2024-02-28T05:24:06;5.03;;;4.30;;
48516;SDS011;34310;51.904;4.256;2024-02-28T05:26:34;5.05;;;4.55;;
48516;SDS011;34310;51.904;4.256;2024-02-28T05:29:01;5.35;;;4.50;;
48516;SDS011;34310;51.904;4.256;2024-02-28T05:31:29;4.15;;;3.75;;
48516;SDS011;34310;51.904;4.256;2024-02-28T05:33:56;5.38;;;4.50;;
48516;SDS011;34310;51.904;4.256;2024-02-28T05:36:24;4.57;;;4.18;;
48516;SDS011;34310;51.904;4.256;2024-02-28T05:38:57;5.40;;;4.60;;
48516;SDS011;34310;51.904;4.256;2024-02-28T05:41:27;5.60;;;4.65;;
48516;SDS011;34310;51.904;4.256;2024-02-28T05:43:54;5.93;;;4.82;;
48516;SDS011;34310;51.904;4.256;2024-02-28T05:46:20;5.35;;;4.70;;
48516;SDS011;34310;51.904;4.256;2024-02-28T05:48:47;6.47;;;5.45;;
48516;SDS011;34310;51.904;4.256;2024-02-28T05:51:14;5.80;;;5.20;;
48516;SDS011;34310;51.904;4.256;2024-02-28T05:53:40;6.80;;;5.13;;
48516;SDS011;34310;51.904;4.256;2024-02-28T05:56:08;6.60;;;5.20;;
48516;SDS011;34310;51.904;4.256;2024-02-28T05:58:35;6.32;;;5.28;;
48516;SDS011;34310;51.904;4.256;2024-02-28T06:01:01;6.30;;;5.15;;
48516;SDS011;34310;51.904;4.256;2024-02-28T06:03:28;6.00;;;5.40;;
48516;SDS011;34310;51.904;4.256;2024-02-28T06:05:55;6.20;;;5.40;;
48516;SDS011;34310;51.904;4.256;2024-02-28T06:08:21;7.38;;;5.60;;
48516;SDS011;34310;51.904;4.256;2024-02-28T06:10:48;6.55;;;5.50;;
48516;SDS011;34310;51.904;4.256;2024-02-28T06:13:14;8.40;;;6.10;;
48516;SDS011;34310;51.904;4.256;2024-02-28T06:15:41;6.28;;;5.35;;
48516;SDS011;34310;51.904;4.256;2024-02-28T06:18:08;5.93;;;5.38;;
48516;SDS011;34310;51.904;4.256;2024-02-28T06:20:34;6.93;;;5.82;;
48516;SDS011;34310;51.904;4.256;2024-02-28T06:23:01;6.75;;;5.78;;
48516;SDS011;34310;51.904;4.256;2024-02-28T06:25:41;7.53;;;5.95;;
48516;SDS011;34310;51.904;4.256;2024-02-28T06:28:07;7.00;;;6.28;;
48516;SDS011;34310;51.904;4.256;2024-02-28T06:30:34;6.38;;;5.72;;
48516;SDS011;34310;51.904;4.256;2024-02-28T06:33:01;6.97;;;5.93;;
48516;SDS011;34310;51.904;4.256;2024-02-28T06:35:28;7.28;;;6.40;;
48516;SDS011;34310;51.904;4.256;2024-02-28T06:37:55;7.60;;;6.28;;
48516;SDS011;34310;51.904;4.256;2024-02-28T06:40:22;7.15;;;6.18;;
48516;SDS011;34310;51.904;4.256;2024-02-28T06:42:48;7.13;;;6.43;;
48516;SDS011;34310;51.904;4.256;2024-02-28T06:45:15;9.77;;;6.38;;
48516;SDS011;34310;51.904;4.256;2024-02-28T06:47:42;6.88;;;6.13;;
48516;SDS011;34310;51.904;4.256;2024-02-28T06:50:09;8.43;;;6.65;;
48516;SDS011;34310;51.904;4.256;2024-02-28T06:52:35;6.70;;;5.97;;
48516;SDS011;34310;51.904;4.256;2024-02-28T06:55:02;7.60;;;6.53;;
48516;SDS011;34310;51.904;4.256;2024-02-28T06:57:33;7.63;;;6.35;;
48516;SDS011;34310;51.904;4.256;2024-02-28T06:59:59;7.45;;;5.90;;
48516;SDS011;34310;51.904;4.256;2024-02-28T07:02:26;8.27;;;6.75;;
48516;SDS011;34310;51.904;4.256;2024-02-28T07:04:53;7.95;;;6.88;;
48516;SDS011;34310;51.904;4.256;2024-02-28T07:07:19;7.05;;;6.35;;
48516;SDS011;34310;51.904;4.256;2024-02-28T07:09:46;8.13;;;7.13;;
48516;SDS011;34310;51.904;4.256;2024-02-28T07:12:13;7.20;;;6.18;;
48516;SDS011;34310;51.904;4.256;2024-02-28T07:14:45;7.43;;;6.28;;
48516;SDS011;34310;51.904;4.256;2024-02-28T07:17:11;7.22;;;6.53;;
48516;SDS011;34310;51.904;4.256;2024-02-28T07:19:38;7.47;;;6.32;;
48516;SDS011;34310;51.904;4.256;2024-02-28T07:22:05;7.88;;;7.07;;
48516;SDS011;34310;51.904;4.256;2024-02-28T07:24:32;6.90;;;6.20;;
48516;SDS011;34310;51.904;4.256;2024-02-28T07:26:59;10.00;;;7.15;;
48516;SDS011;34310;51.904;4.256;2024-02-28T07:29:28;7.75;;;6.88;;
48516;SDS011;34310;51.904;4.256;2024-02-28T07:31:55;8.07;;;6.75;;
48516;SDS011;34310;51.904;4.256;2024-02-28T07:34:22;7.97;;;6.40;;
48516;SDS011;34310;51.904;4.256;2024-02-28T07:36:48;7.72;;;6.82;;
48516;SDS011;34310;51.904;4.256;2024-02-28T07:39:15;7.68;;;6.70;;
48516;SDS011;34310;51.904;4.256;2024-02-28T07:41:41;8.10;;;6.57;;
48516;SDS011;34310;51.904;4.256;2024-02-28T07:44:08;7.13;;;6.43;;
48516;SDS011;34310;51.904;4.256;2024-02-28T07:46:35;7.95;;;6.53;;
48516;SDS011;34310;51.904;4.256;2024-02-28T07:49:01;9.63;;;6.65;;
48516;SDS011;34310;51.904;4.256;2024-02-28T07:51:29;7.32;;;6.22;;
48516;SDS011;34310;51.904;4.256;2024-02-28T07:54:02;7.10;;;6.00;;
48516;SDS011;34310;51.904;4.256;2024-02-28T07:56:29;6.78;;;6.07;;
48516;SDS011;34310;51.904;4.256;2024-02-28T07:58:55;7.00;;;6.28;;
48516;SDS011;34310;51.904;4.256;2024-02-28T08:01:22;6.88;;;6.15;;
48516;SDS011;34310;51.904;4.256;2024-02-28T08:03:49;6.35;;;5.75;;
48516;SDS011;34310;51.904;4.256;2024-02-28T08:06:15;6.38;;;5.75;;
48516;SDS011;34310;51.904;4.256;2024-02-28T08:08:45;6.90;;;6.18;;
48516;SDS011;34310;51.904;4.256;2024-02-28T08:11:12;7.50;;;5.63;;
48516;SDS011;34310;51.904;4.256;2024-02-28T08:13:39;7.40;;;5.53;;
48516;SDS011;34310;51.904;4.256;2024-02-28T08:16:05;6.97;;;5.90;;
48516;SDS011;34310;51.904;4.256;2024-02-28T08:18:32;5.90;;;5.30;;
48516;SDS011;34310;51.904;4.256;2024-02-28T08:20:59;6.78;;;5.70;;
48516;SDS011;34310;51.904;4.256;2024-02-28T08:23:25;6.57;;;5.70;;
48516;SDS011;34310;51.904;4.256;2024-02-28T08:25:52;6.40;;;5.70;;
48516;SDS011;34310;51.904;4.256;2024-02-28T08:28:19;5.90;;;5.30;;
48516;SDS011;34310;51.904;4.256;2024-02-28T08:30:45;6.47;;;5.80;;
48516;SDS011;34310;51.904;4.256;2024-02-28T08:33:12;6.57;;;5.50;;
48516;SDS011;34310;51.904;4.256;2024-02-28T08:35:39;6.20;;;5.60;;
48516;SDS011;34310;51.904;4.256;2024-02-28T08:38:05;6.07;;;5.45;;
48516;SDS011;34310;51.904;4.256;2024-02-28T08:40:32;6.10;;;5.50;;
48516;SDS011;34310;51.904;4.256;2024-02-28T08:42:58;5.80;;;5.20;;
48516;SDS011;34310;51.904;4.256;2024-02-28T08:45:28;6.43;;;5.75;;
48516;SDS011;34310;51.904;4.256;2024-02-28T08:47:54;7.07;;;5.55;;
48516;SDS011;34310;51.904;4.256;2024-02-28T08:50:21;6.60;;;5.78;;
48516;SDS011;34310;51.904;4.256;2024-02-28T08:52:51;6.78;;;5.80;;
48516;SDS011;34310;51.904;4.256;2024-02-28T08:55:17;6.90;;;5.55;;
48516;SDS011;34310;51.904;4.256;2024-02-28T08:57:44;6.93;;;5.80;;
48516;SDS011;34310;51.904;4.256;2024-02-28T09:00:11;6.80;;;6.10;;
48516;SDS011;34310;51.904;4.256;2024-02-28T09:02:38;5.88;;;5.38;;
48516;SDS011;34310;51.904;4.256;2024-02-28T09:05:05;6.60;;;5.45;;
48516;SDS011;34310;51.904;4.256;2024-02-28T09:07:32;7.38;;;6.25;;
48516;SDS011;34310;51.904;4.256;2024-02-28T09:09:58;6.45;;;5.85;;
48516;SDS011;34310;51.904;4.256;2024-02-28T09:12:25;6.03;;;5.32;;
48516;SDS011;34310;51.904;4.256;2024-02-28T09:14:55;6.30;;;5.60;;
48516;SDS011;34310;51.904;4.256;2024-02-28T09:17:21;6.60;;;5.90;;
48516;SDS011;34310;51.904;4.256;2024-02-28T09:19:52;8.20;;;6.18;;
48516;SDS011;34310;51.904;4.256;2024-02-28T09:22:20;7.82;;;5.97;;
48516;SDS011;34310;51.904;4.256;2024-02-28T09:24:46;7.85;;;6.10;;
48516;SDS011;34310;51.904;4.256;2024-02-28T09:27:13;6.85;;;5.97;;
48516;SDS011;34310;51.904;4.256;2024-02-28T09:29:40;7.53;;;6.50;;
48516;SDS011;34310;51.904;4.256;2024-02-28T09:32:06;7.32;;;6.63;;
48516;SDS011;34310;51.904;4.256;2024-02-28T09:34:33;7.47;;;6.43;;
48516;SDS011;34310;51.904;4.256;2024-02-28T09:37:00;7.13;;;6.43;;
48516;SDS011;34310;51.904;4.256;2024-02-28T09:39:26;8.38;;;6.40;;
48516;SDS011;34310;51.904;4.256;2024-02-28T09:42:08;7.60;;;6.40;;
48516;SDS011;34310;51.904;4.256;2024-02-28T09:44:36;7.68;;;6.15;;
48516;SDS011;34310;51.904;4.256;2024-02-28T09:47:03;7.05;;;6.35;;
48516;SDS011;34310;51.904;4.256;2024-02-28T09:49:31;6.95;;;6.22;;
48516;SDS011;34310;51.904;4.256;2024-02-28T09:51:58;6.57;;;5.88;;
48516;SDS011;34310;51.904;4.256;2024-02-28T09:54:29;6.43;;;5.80;;
48516;SDS011;34310;51.904;4.256;2024-02-28T09:56:56;7.03;;;5.95;;
48516;SDS011;34310;51.904;4.256;2024-02-28T09:59:23;6.50;;;5.90;;
48516;SDS011;34310;51.904;4.256;2024-02-28T10:02:04;6.25;;;5.65;;
48516;SDS011;34310;51.904;4.256;2024-02-28T10:04:34;6.35;;;5.70;;
48516;SDS011;34310;51.904;4.256;2024-02-28T10:07:18;6.15;;;5.40;;
48516;SDS011;34310;51.904;4.256;2024-02-28T10:09:44;6.53;;;5.28;;
48516;SDS011;34310;51.904;4.256;2024-02-28T10:12:14;6.53;;;5.82;;
48516;SDS011;34310;51.904;4.256;2024-02-28T10:14:42;5.85;;;5.25;;
48516;SDS011;34310;51.904;4.256;2024-02-28T10:17:09;5.53;;;5.07;;
48516;SDS011;34310;51.904;4.256;2024-02-28T10:19:35;6.55;;;5.40;;
48516;SDS011;34310;51.904;4.256;2024-02-28T10:22:02;5.63;;;5.13;;
48516;SDS011;34310;51.904;4.256;2024-02-28T10:24:32;7.80;;;5.68;;
48516;SDS011;34310;51.904;4.256;2024-02-28T10:27:02;7.57;;;5.53;;
48516;SDS011;34310;51.904;4.256;2024-02-28T10:29:29;6.68;;;5.75;;
48516;SDS011;34310;51.904;4.256;2024-02-28T10:31:56;6.68;;;5.70;;
48516;SDS011;34310;51.904;4.256;2024-02-28T10:34:23;6.30;;;5.65;;
48516;SDS011;34310;51.904;4.256;2024-02-28T10:36:50;6.18;;;5.57;;
48516;SDS011;34310;51.904;4.256;2024-02-28T10:39:17;6.80;;;6.10;;
48516;SDS011;34310;51.904;4.256;2024-02-28T10:41:46;8.27;;;6.53;;
48516;SDS011;34310;51.904;4.256;2024-02-28T10:44:13;9.38;;;6.70;;
48516;SDS011;34310;51.904;4.256;2024-02-28T10:46:40;19.67;;;9.63;;
48516;SDS011;34310;51.904;4.256;2024-02-28T10:49:08;16.20;;;10.30;;
48516;SDS011;34310;51.904;4.256;2024-02-28T10:51:36;15.02;;;9.48;;
48516;SDS011;34310;51.904;4.256;2024-02-28T10:54:10;13.32;;;9.38;;
48516;SDS011;34310;51.904;4.256;2024-02-28T10:56:39;16.77;;;9.98;;
48516;SDS011;34310;51.904;4.256;2024-02-28T10:59:07;14.60;;;9.88;;
48516;SDS011;34310;51.904;4.256;2024-02-28T11:01:37;15.73;;;9.48;;
48516;SDS011;34310;51.904;4.256;2024-02-28T11:04:12;14.70;;;8.50;;
48516;SDS011;34310;51.904;4.256;2024-02-28T11:06:48;13.23;;;8.77;;
48516;SDS011;34310;51.904;4.256;2024-02-28T11:09:19;16.02;;;8.68;;
48516;SDS011;34310;51.904;4.256;2024-02-28T11:11:47;11.65;;;8.93;;
48516;SDS011;34310;51.904;4.256;2024-02-28T11:14:14;11.73;;;8.82;;
48516;SDS011;34310;51.904;4.256;2024-02-28T11:16:41;14.82;;;8.75;;
48516;SDS011;34310;51.904;4.256;2024-02-28T11:19:08;13.80;;;9.70;;
48516;SDS011;34310;51.904;4.256;2024-02-28T11:21:45;11.02;;;8.75;;
48516;SDS011;34310;51.904;4.256;2024-02-28T11:24:18;13.82;;;8.65;;
48516;SDS011;34310;51.904;4.256;2024-02-28T11:26:45;12.90;;;9.30;;
48516;SDS011;34310;51.904;4.256;2024-02-28T11:29:15;15.43;;;9.90;;
48516;SDS011;34310;51.904;4.256;2024-02-28T11:31:41;14.77;;;10.10;;
48516;SDS011;34310;51.904;4.256;2024-02-28T11:34:08;14.80;;;10.38;;
48516;SDS011;34310;51.904;4.256;2024-02-28T11:36:34;15.65;;;10.32;;
48516;SDS011;34310;51.904;4.256;2024-02-28T11:39:01;15.35;;;10.65;;
48516;SDS011;34310;51.904;4.256;2024-02-28T11:41:28;14.07;;;10.45;;
48516;SDS011;34310;51.904;4.256;2024-02-28T11:43:54;17.50;;;11.20;;
48516;SDS011;34310;51.904;4.256;2024-02-28T11:46:21;14.25;;;10.65;;
48516;SDS011;34310;51.904;4.256;2024-02-28T11:48:47;14.73;;;11.15;;
48516;SDS011;34310;51.904;4.256;2024-02-28T11:51:14;15.05;;;11.40;;
48516;SDS011;34310;51.904;4.256;2024-02-28T11:53:41;13.80;;;10.27;;
48516;SDS011;34310;51.904;4.256;2024-02-28T11:56:07;13.68;;;10.38;;
48516;SDS011;34310;51.904;4.256;2024-02-28T11:58:34;15.43;;;11.77;;
48516;SDS011;34310;51.904;4.256;2024-02-28T12:01:00;13.85;;;10.35;;
48516;SDS011;34310;51.904;4.256;2024-02-28T12:03:27;13.25;;;11.38;;
48516;SDS011;34310;51.904;4.256;2024-02-28T12:05:55;14.43;;;10.50;;
48516;SDS011;34310;51.904;4.256;2024-02-28T12:08:24;14.10;;;10.73;;
48516;SDS011;34310;51.904;4.256;2024-02-28T12:10:55;12.55;;;10.45;;
48516;SDS011;34310;51.904;4.256;2024-02-28T12:13:22;12.32;;;10.43;;
48516;SDS011;34310;51.904;4.256;2024-02-28T12:15:49;14.23;;;10.32;;
48516;SDS011;34310;51.904;4.256;2024-02-28T12:18:16;12.75;;;10.48;;
48516;SDS011;34310;51.904;4.256;2024-02-28T12:20:42;12.00;;;10.00;;
48516;SDS011;34310;51.904;4.256;2024-02-28T12:23:09;12.35;;;10.00;;
48516;SDS011;34310;51.904;4.256;2024-02-28T12:25:35;11.32;;;9.40;;
48516;SDS011;34310;51.904;4.256;2024-02-28T12:28:08;10.77;;;9.68;;
48516;SDS011;34310;51.904;4.256;2024-02-28T12:30:39;10.95;;;9.77;;
48516;SDS011;34310;51.904;4.256;2024-02-28T12:33:07;11.13;;;9.45;;
48516;SDS011;34310;51.904;4.256;2024-02-28T12:35:34;10.30;;;9.20;;
48516;SDS011;34310;51.904;4.256;2024-02-28T12:38:01;10.48;;;9.05;;
48516;SDS011;34310;51.904;4.256;2024-02-28T12:40:27;11.35;;;9.20;;
48516;SDS011;34310;51.904;4.256;2024-02-28T12:42:56;11.93;;;9.68;;
48516;SDS011;34310;51.904;4.256;2024-02-28T12:45:23;10.75;;;9.65;;
48516;SDS011;34310;51.904;4.256;2024-02-28T12:47:50;10.23;;;9.13;;
48516;SDS011;34310;51.904;4.256;2024-02-28T12:50:16;10.48;;;9.13;;
48516;SDS011;34310;51.904;4.256;2024-02-28T12:52:43;9.85;;;8.82;;
48516;SDS011;34310;51.904;4.256;2024-02-28T12:55:09;10.13;;;9.13;;
48516;SDS011;34310;51.904;4.256;2024-02-28T12:57:36;10.60;;;9.05;;
48516;SDS011;34310;51.904;4.256;2024-02-28T13:00:03;11.05;;;9.75;;
48516;SDS011;34310;51.904;4.256;2024-02-28T13:02:30;10.00;;;8.95;;
48516;SDS011;34310;51.904;4.256;2024-02-28T13:04:56;9.50;;;8.05;;
48516;SDS011;34310;51.904;4.256;2024-02-28T13:07:23;9.25;;;8.15;;
48516;SDS011;34310;51.904;4.256;2024-02-28T13:09:49;9.13;;;7.68;;
48516;SDS011;34310;51.904;4.256;2024-02-28T13:12:16;8.55;;;7.65;;
48516;SDS011;34310;51.904;4.256;2024-02-28T13:14:42;8.35;;;7.45;;
48516;SDS011;34310;51.904;4.256;2024-02-28T13:17:09;8.25;;;7.28;;
48516;SDS011;34310;51.904;4.256;2024-02-28T13:19:36;8.52;;;7.15;;
48516;SDS011;34310;51.904;4.256;2024-02-28T13:22:02;8.00;;;7.20;;
48516;SDS011;34310;51.904;4.256;2024-02-28T13:24:29;7.53;;;6.72;;
48516;SDS011;34310;51.904;4.256;2024-02-28T13:26:55;8.73;;;7.25;;
48516;SDS011;34310;51.904;4.256;2024-02-28T13:29:22;8.52;;;7.63;;
48516;SDS011;34310;51.904;4.256;2024-02-28T13:31:48;8.00;;;7.20;;
48516;SDS011;34310;51.904;4.256;2024-02-28T13:34:15;7.45;;;6.65;;
48516;SDS011;34310;51.904;4.256;2024-02-28T13:36:45;7.47;;;6.78;;
48516;SDS011;34310;51.904;4.256;2024-02-28T13:39:13;7.63;;;6.93;;
48516;SDS011;34310;51.904;4.256;2024-02-28T13:41:42;8.98;;;7.38;;
48516;SDS011;34310;51.904;4.256;2024-02-28T13:44:10;7.50;;;6.80;;
48516;SDS011;34310;51.904;4.256;2024-02-28T13:46:36;8.27;;;7.38;;
48516;SDS011;34310;51.904;4.256;2024-02-28T13:49:03;8.15;;;6.85;;
48516;SDS011;34310;51.904;4.256;2024-02-28T13:51:30;7.80;;;7.03;;
48516;SDS011;34310;51.904;4.256;2024-02-28T13:53:59;8.50;;;7.70;;
48516;SDS011;34310;51.904;4.256;2024-02-28T13:56:26;8.43;;;7.55;;
48516;SDS011;34310;51.904;4.256;2024-02-28T13:58:53;8.60;;;7.70;;
48516;SDS011;34310;51.904;4.256;2024-02-28T14:01:20;7.82;;;7.13;;
48516;SDS011;34310;51.904;4.256;2024-02-28T14:03:47;8.75;;;7.85;;
48516;SDS011;34310;51.904;4.256;2024-02-28T14:06:14;8.30;;;7.50;;
48516;SDS011;34310;51.904;4.256;2024-02-28T14:08:40;8.55;;;7.63;;
48516;SDS011;34310;51.904;4.256;2024-02-28T14:11:09;8.60;;;7.70;;
48516;SDS011;34310;51.904;4.256;2024-02-28T14:13:36;7.97;;;7.18;;
48516;SDS011;34310;51.904;4.256;2024-02-28T14:16:03;7.97;;;7.18;;
48516;SDS011;34310;51.904;4.256;2024-02-28T14:18:33;8.88;;;7.97;;
48516;SDS011;34310;51.904;4.256;2024-02-28T14:20:59;7.70;;;6.97;;
48516;SDS011;34310;51.904;4.256;2024-02-28T14:23:26;8.63;;;7.82;;
48516;SDS011;34310;51.904;4.256;2024-02-28T14:25:52;10.52;;;8.45;;
48516;SDS011;34310;51.904;4.256;2024-02-28T14:28:19;14.77;;;8.52;;
48516;SDS011;34310;51.904;4.256;2024-02-28T14:30:46;11.52;;;6.88;;
48516;SDS011;34310;51.904;4.256;2024-02-28T14:33:12;16.13;;;7.65;;
48516;SDS011;34310;51.904;4.256;2024-02-28T14:35:40;10.90;;;7.28;;
48516;SDS011;34310;51.904;4.256;2024-02-28T14:38:10;10.98;;;7.25;;
48516;SDS011;34310;51.904;4.256;2024-02-28T14:40:36;7.30;;;6.28;;
48516;SDS011;34310;51.904;4.256;2024-02-28T14:43:03;10.55;;;6.93;;
48516;SDS011;34310;51.904;4.256;2024-02-28T14:45:33;8.50;;;6.70;;